sensor_id;sensor_type;location;lat;lon;timestamp;temperature;humidity
17879;DHT22;9065;51.050;13.758;2022-08-16T00:01:56;20.20;99.90
17879;DHT22;9065;51.050;13.758;2022-08-16T00:04:23;20.20;99.90
17879;DHT22;9065;51.050;13.758;2022-08-16T00:06:51;20.10;99.90
17879;DHT22;9065;51.050;13.758;2022-08-16T00:09:18;20.00;99.90
17879;DHT22;9065;51.050;13.758;2022-08-16T00:11:48;20.00;99.90
17879;DHT22;9065;51.050;13.758;2022-08-16T00:14:18;20.00;99.90
17879;DHT22;9065;51.050;13.758;2022-08-16T00:16:45;19.90;99.90
17879;DHT22;9065;51.050;13.758;2022-08-16T00:19:13;19.90;99.90
17879;DHT22;9065;51.050;13.758;2022-08-16T00:21:43;19.90;99.90
17879;DHT22;9065;51.050;13.758;2022-08-16T00:24:13;19.80;99.90
17879;DHT22;9065;51.050;13.758;2022-08-16T00:26:41;19.90;99.90
17879;DHT22;9065;51.050;13.758;2022-08-16T00:29:08;19.80;99.90
17879;DHT22;9065;51.050;13.758;2022-08-16T00:31:35;19.80;99.90
17879;DHT22;9065;51.050;13.758;2022-08-16T00:34:03;19.70;99.90
17879;DHT22;9065;51.050;13.758;2022-08-16T00:36:30;19.70;99.90
17879;DHT22;9065;51.050;13.758;2022-08-16T00:38:57;19.70;99.90
17879;DHT22;9065;51.050;13.758;2022-08-16T00:41:27;19.70;99.90
17879;DHT22;9065;51.050;13.758;2022-08-16T00:43:54;19.70;99.90
17879;DHT22;9065;51.050;13.758;2022-08-16T00:46:26;19.70;99.90
17879;DHT22;9065;51.050;13.758;2022-08-16T00:48:54;19.70;99.90
17879;DHT22;9065;51.050;13.758;2022-08-16T00:51:22;19.60;99.90
17879;DHT22;9065;51.050;13.758;2022-08-16T00:53:50;19.60;99.90
17879;DHT22;9065;51.050;13.758;2022-08-16T00:56:19;19.60;99.90
17879;DHT22;9065;51.050;13.758;2022-08-16T00:58:49;19.60;99.90
17879;DHT22;9065;51.050;13.758;2022-08-16T01:01:17;19.60;99.90
17879;DHT22;9065;51.050;13.758;2022-08-16T01:03:46;19.50;99.90
17879;DHT22;9065;51.050;13.758;2022-08-16T01:06:14;19.50;99.90
17879;DHT22;9065;51.050;13.758;2022-08-16T01:08:44;19.50;99.90
17879;DHT22;9065;51.050;13.758;2022-08-16T01:11:12;19.40;99.90
17879;DHT22;9065;51.050;13.758;2022-08-16T01:13:40;19.40;99.90
17879;DHT22;9065;51.050;13.758;2022-08-16T01:16:13;19.40;99.90
17879;DHT22;9065;51.050;13.758;2022-08-16T01:18:44;19.40;99.90
17879;DHT22;9065;51.050;13.758;2022-08-16T01:21:20;19.30;99.90
17879;DHT22;9065;51.050;13.758;2022-08-16T01:26:43;19.20;99.90
17879;DHT22;9065;51.050;13.758;2022-08-16T01:29:15;19.20;99.90
17879;DHT22;9065;51.050;13.758;2022-08-16T01:31:42;19.20;99.90
17879;DHT22;9065;51.050;13.758;2022-08-16T01:34:11;19.20;99.90
17879;DHT22;9065;51.050;13.758;2022-08-16T01:36:40;19.20;99.90
17879;DHT22;9065;51.050;13.758;2022-08-16T01:39:12;19.20;99.90
17879;DHT22;9065;51.050;13.758;2022-08-16T01:41:41;19.20;99.90
17879;DHT22;9065;51.050;13.758;2022-08-16T01:44:08;19.20;99.90
17879;DHT22;9065;51.050;13.758;2022-08-16T01:46:37;19.20;99.90
17879;DHT22;9065;51.050;13.758;2022-08-16T01:49:08;19.20;99.90
17879;DHT22;9065;51.050;13.758;2022-08-16T01:51:36;19.20;99.90
17879;DHT22;9065;51.050;13.758;2022-08-16T01:54:04;19.20;99.90
17879;DHT22;9065;51.050;13.758;2022-08-16T01:56:32;19.10;99.90
17879;DHT22;9065;51.050;13.758;2022-08-16T01:59:02;19.10;99.90
17879;DHT22;9065;51.050;13.758;2022-08-16T02:01:30;19.10;99.90
17879;DHT22;9065;51.050;13.758;2022-08-16T02:03:59;19.10;99.90
17879;DHT22;9065;51.050;13.758;2022-08-16T02:06:27;19.10;99.90
17879;DHT22;9065;51.050;13.758;2022-08-16T02:08:54;19.10;99.90
17879;DHT22;9065;51.050;13.758;2022-08-16T02:11:22;19.10;99.90
17879;DHT22;9065;51.050;13.758;2022-08-16T02:13:51;19.10;99.90
17879;DHT22;9065;51.050;13.758;2022-08-16T02:16:18;19.00;99.90
17879;DHT22;9065;51.050;13.758;2022-08-16T02:18:46;19.00;99.90
17879;DHT22;9065;51.050;13.758;2022-08-16T02:21:13;19.00;99.90
17879;DHT22;9065;51.050;13.758;2022-08-16T02:23:40;19.00;99.90
17879;DHT22;9065;51.050;13.758;2022-08-16T02:26:07;18.90;99.90
17879;DHT22;9065;51.050;13.758;2022-08-16T02:28:34;18.90;99.90
17879;DHT22;9065;51.050;13.758;2022-08-16T02:31:07;18.90;99.90
17879;DHT22;9065;51.050;13.758;2022-08-16T02:33:36;18.80;99.90
17879;DHT22;9065;51.050;13.758;2022-08-16T02:36:04;18.80;99.90
17879;DHT22;9065;51.050;13.758;2022-08-16T02:38:32;18.80;99.90
17879;DHT22;9065;51.050;13.758;2022-08-16T02:41:00;18.80;99.90
17879;DHT22;9065;51.050;13.758;2022-08-16T02:43:30;18.80;99.90
17879;DHT22;9065;51.050;13.758;2022-08-16T02:45:58;18.80;99.90
17879;DHT22;9065;51.050;13.758;2022-08-16T02:48:26;18.80;99.90
17879;DHT22;9065;51.050;13.758;2022-08-16T02:50:55;18.70;99.90
17879;DHT22;9065;51.050;13.758;2022-08-16T02:53:23;18.70;99.90
17879;DHT22;9065;51.050;13.758;2022-08-16T02:55:50;18.70;99.90
17879;DHT22;9065;51.050;13.758;2022-08-16T02:58:17;18.70;99.90
17879;DHT22;9065;51.050;13.758;2022-08-16T03:00:43;18.70;99.90
17879;DHT22;9065;51.050;13.758;2022-08-16T03:03:10;18.70;99.90
17879;DHT22;9065;51.050;13.758;2022-08-16T03:05:40;18.70;99.90
17879;DHT22;9065;51.050;13.758;2022-08-16T03:08:07;18.70;99.90
17879;DHT22;9065;51.050;13.758;2022-08-16T03:10:40;18.60;99.90
17879;DHT22;9065;51.050;13.758;2022-08-16T03:13:07;18.50;99.90
17879;DHT22;9065;51.050;13.758;2022-08-16T03:15:35;18.40;99.90
17879;DHT22;9065;51.050;13.758;2022-08-16T03:18:02;18.30;99.90
17879;DHT22;9065;51.050;13.758;2022-08-16T03:20:29;18.30;99.90
17879;DHT22;9065;51.050;13.758;2022-08-16T03:22:57;18.30;99.90
17879;DHT22;9065;51.050;13.758;2022-08-16T03:25:24;18.40;99.90
17879;DHT22;9065;51.050;13.758;2022-08-16T03:27:51;18.30;99.90
17879;DHT22;9065;51.050;13.758;2022-08-16T03:30:20;18.30;99.90
17879;DHT22;9065;51.050;13.758;2022-08-16T03:32:49;18.20;99.90
17879;DHT22;9065;51.050;13.758;2022-08-16T03:35:17;18.20;99.90
17879;DHT22;9065;51.050;13.758;2022-08-16T03:37:45;18.20;99.90
17879;DHT22;9065;51.050;13.758;2022-08-16T03:40:14;18.20;99.90
17879;DHT22;9065;51.050;13.758;2022-08-16T03:42:41;18.20;99.90
17879;DHT22;9065;51.050;13.758;2022-08-16T03:45:08;18.20;99.90
17879;DHT22;9065;51.050;13.758;2022-08-16T03:47:35;18.30;99.90
17879;DHT22;9065;51.050;13.758;2022-08-16T03:50:04;18.30;99.90
17879;DHT22;9065;51.050;13.758;2022-08-16T03:52:32;18.30;99.90
17879;DHT22;9065;51.050;13.758;2022-08-16T03:55:00;18.30;99.90
17879;DHT22;9065;51.050;13.758;2022-08-16T03:57:29;18.30;99.90
17879;DHT22;9065;51.050;13.758;2022-08-16T03:59:56;18.30;99.90
17879;DHT22;9065;51.050;13.758;2022-08-16T04:02:24;18.30;99.90
17879;DHT22;9065;51.050;13.758;2022-08-16T04:04:53;18.20;99.90
17879;DHT22;9065;51.050;13.758;2022-08-16T04:07:20;18.20;99.90
17879;DHT22;9065;51.050;13.758;2022-08-16T04:09:47;18.20;99.90
17879;DHT22;9065;51.050;13.758;2022-08-16T04:12:14;18.20;99.90
17879;DHT22;9065;51.050;13.758;2022-08-16T04:14:42;18.20;99.90
17879;DHT22;9065;51.050;13.758;2022-08-16T04:17:10;18.20;99.90
17879;DHT22;9065;51.050;13.758;2022-08-16T04:19:41;18.20;99.90
17879;DHT22;9065;51.050;13.758;2022-08-16T04:22:10;18.20;99.90
17879;DHT22;9065;51.050;13.758;2022-08-16T04:24:37;18.20;99.90
17879;DHT22;9065;51.050;13.758;2022-08-16T04:27:04;18.20;99.90
17879;DHT22;9065;51.050;13.758;2022-08-16T04:29:33;18.20;99.90
17879;DHT22;9065;51.050;13.758;2022-08-16T04:32:02;18.20;99.90
17879;DHT22;9065;51.050;13.758;2022-08-16T04:34:31;18.20;99.90
17879;DHT22;9065;51.050;13.758;2022-08-16T04:36:59;18.30;99.90
17879;DHT22;9065;51.050;13.758;2022-08-16T04:39:27;18.30;99.90
17879;DHT22;9065;51.050;13.758;2022-08-16T04:41:54;18.30;99.90
17879;DHT22;9065;51.050;13.758;2022-08-16T04:44:22;18.30;99.90
17879;DHT22;9065;51.050;13.758;2022-08-16T04:46:52;18.30;99.90
17879;DHT22;9065;51.050;13.758;2022-08-16T04:49:20;18.30;99.90
17879;DHT22;9065;51.050;13.758;2022-08-16T04:51:47;18.30;99.90
17879;DHT22;9065;51.050;13.758;2022-08-16T04:54:14;18.40;99.90
17879;DHT22;9065;51.050;13.758;2022-08-16T04:56:41;18.40;99.90
17879;DHT22;9065;51.050;13.758;2022-08-16T04:59:08;18.40;99.90
17879;DHT22;9065;51.050;13.758;2022-08-16T05:01:36;18.40;99.90
17879;DHT22;9065;51.050;13.758;2022-08-16T05:04:04;18.50;99.90
17879;DHT22;9065;51.050;13.758;2022-08-16T05:06:32;18.50;99.90
17879;DHT22;9065;51.050;13.758;2022-08-16T05:08:59;18.50;99.90
17879;DHT22;9065;51.050;13.758;2022-08-16T05:11:27;18.50;99.90
17879;DHT22;9065;51.050;13.758;2022-08-16T05:13:55;18.60;99.90
17879;DHT22;9065;51.050;13.758;2022-08-16T05:16:25;18.70;99.90
17879;DHT22;9065;51.050;13.758;2022-08-16T05:18:54;18.70;99.90
17879;DHT22;9065;51.050;13.758;2022-08-16T05:21:22;18.70;99.90
17879;DHT22;9065;51.050;13.758;2022-08-16T05:23:51;18.80;99.90
17879;DHT22;9065;51.050;13.758;2022-08-16T05:26:18;18.80;99.90
17879;DHT22;9065;51.050;13.758;2022-08-16T05:28:46;18.80;99.90
17879;DHT22;9065;51.050;13.758;2022-08-16T05:31:13;18.90;99.90
17879;DHT22;9065;51.050;13.758;2022-08-16T05:33:41;19.00;99.90
17879;DHT22;9065;51.050;13.758;2022-08-16T05:36:08;19.00;99.90
17879;DHT22;9065;51.050;13.758;2022-08-16T05:38:36;19.10;99.90
17879;DHT22;9065;51.050;13.758;2022-08-16T05:41:05;19.20;99.90
17879;DHT22;9065;51.050;13.758;2022-08-16T05:43:32;19.20;99.90
17879;DHT22;9065;51.050;13.758;2022-08-16T05:45:59;19.30;99.90
17879;DHT22;9065;51.050;13.758;2022-08-16T05:48:26;19.40;99.90
17879;DHT22;9065;51.050;13.758;2022-08-16T05:50:53;19.40;99.90
17879;DHT22;9065;51.050;13.758;2022-08-16T05:53:21;19.50;99.90
17879;DHT22;9065;51.050;13.758;2022-08-16T05:55:49;19.60;99.90
17879;DHT22;9065;51.050;13.758;2022-08-16T05:58:18;19.60;99.90
17879;DHT22;9065;51.050;13.758;2022-08-16T06:00:45;19.70;99.90
17879;DHT22;9065;51.050;13.758;2022-08-16T06:03:12;19.80;99.90
17879;DHT22;9065;51.050;13.758;2022-08-16T06:05:40;19.90;99.90
17879;DHT22;9065;51.050;13.758;2022-08-16T06:08:08;20.00;99.90
17879;DHT22;9065;51.050;13.758;2022-08-16T06:10:35;20.10;99.90
17879;DHT22;9065;51.050;13.758;2022-08-16T06:13:02;20.20;99.90
17879;DHT22;9065;51.050;13.758;2022-08-16T06:15:30;20.20;99.90
17879;DHT22;9065;51.050;13.758;2022-08-16T06:17:58;20.30;99.90
17879;DHT22;9065;51.050;13.758;2022-08-16T06:20:27;20.40;99.90
17879;DHT22;9065;51.050;13.758;2022-08-16T06:22:55;20.50;99.90
17879;DHT22;9065;51.050;13.758;2022-08-16T06:25:25;20.70;99.90
17879;DHT22;9065;51.050;13.758;2022-08-16T06:27:53;20.80;99.90
17879;DHT22;9065;51.050;13.758;2022-08-16T06:30:22;21.00;99.90
17879;DHT22;9065;51.050;13.758;2022-08-16T06:32:50;21.20;99.90
17879;DHT22;9065;51.050;13.758;2022-08-16T06:35:17;21.40;99.90
17879;DHT22;9065;51.050;13.758;2022-08-16T06:37:45;21.60;99.90
17879;DHT22;9065;51.050;13.758;2022-08-16T06:40:12;21.80;99.90
17879;DHT22;9065;51.050;13.758;2022-08-16T06:42:39;21.80;99.90
17879;DHT22;9065;51.050;13.758;2022-08-16T06:45:06;21.80;99.90
17879;DHT22;9065;51.050;13.758;2022-08-16T06:47:34;21.90;99.90
17879;DHT22;9065;51.050;13.758;2022-08-16T06:50:03;22.00;99.90
17879;DHT22;9065;51.050;13.758;2022-08-16T06:52:30;22.10;99.90
17879;DHT22;9065;51.050;13.758;2022-08-16T06:55:01;22.20;99.90
17879;DHT22;9065;51.050;13.758;2022-08-16T06:57:28;22.30;99.90
17879;DHT22;9065;51.050;13.758;2022-08-16T06:59:56;22.50;99.90
17879;DHT22;9065;51.050;13.758;2022-08-16T07:02:23;22.70;99.90
17879;DHT22;9065;51.050;13.758;2022-08-16T07:04:51;22.70;99.90
17879;DHT22;9065;51.050;13.758;2022-08-16T07:07:20;22.80;99.90
17879;DHT22;9065;51.050;13.758;2022-08-16T07:09:48;22.90;99.90
17879;DHT22;9065;51.050;13.758;2022-08-16T07:12:15;22.90;99.90
17879;DHT22;9065;51.050;13.758;2022-08-16T07:14:42;23.10;99.90
17879;DHT22;9065;51.050;13.758;2022-08-16T07:17:10;23.20;99.90
17879;DHT22;9065;51.050;13.758;2022-08-16T07:19:37;23.50;99.90
17879;DHT22;9065;51.050;13.758;2022-08-16T07:22:05;23.90;99.90
17879;DHT22;9065;51.050;13.758;2022-08-16T07:24:33;24.40;99.90
17879;DHT22;9065;51.050;13.758;2022-08-16T07:27:00;24.60;99.90
17879;DHT22;9065;51.050;13.758;2022-08-16T07:29:29;24.90;99.90
17879;DHT22;9065;51.050;13.758;2022-08-16T07:31:56;25.10;99.90
17879;DHT22;9065;51.050;13.758;2022-08-16T07:34:23;25.60;99.90
17879;DHT22;9065;51.050;13.758;2022-08-16T07:36:50;26.30;99.90
17879;DHT22;9065;51.050;13.758;2022-08-16T07:39:18;27.40;99.90
17879;DHT22;9065;51.050;13.758;2022-08-16T07:41:52;27.50;99.90
17879;DHT22;9065;51.050;13.758;2022-08-16T07:44:20;28.20;99.90
17879;DHT22;9065;51.050;13.758;2022-08-16T07:46:47;28.50;99.90
17879;DHT22;9065;51.050;13.758;2022-08-16T07:49:14;28.70;99.90
17879;DHT22;9065;51.050;13.758;2022-08-16T07:51:42;29.00;99.90
17879;DHT22;9065;51.050;13.758;2022-08-16T07:54:10;29.60;99.90
17879;DHT22;9065;51.050;13.758;2022-08-16T07:56:37;29.90;99.90
17879;DHT22;9065;51.050;13.758;2022-08-16T07:59:06;30.10;99.90
17879;DHT22;9065;51.050;13.758;2022-08-16T08:01:36;30.80;99.90
17879;DHT22;9065;51.050;13.758;2022-08-16T08:04:06;30.60;99.90
17879;DHT22;9065;51.050;13.758;2022-08-16T08:06:40;30.30;99.90
17879;DHT22;9065;51.050;13.758;2022-08-16T08:09:08;29.90;99.90
17879;DHT22;9065;51.050;13.758;2022-08-16T08:11:34;29.70;99.90
17879;DHT22;9065;51.050;13.758;2022-08-16T08:14:02;29.90;99.90
17879;DHT22;9065;51.050;13.758;2022-08-16T08:16:31;29.90;99.90
17879;DHT22;9065;51.050;13.758;2022-08-16T08:18:59;30.10;99.90
17879;DHT22;9065;51.050;13.758;2022-08-16T08:21:27;30.10;99.90
17879;DHT22;9065;51.050;13.758;2022-08-16T08:23:55;29.90;99.90
17879;DHT22;9065;51.050;13.758;2022-08-16T08:26:23;29.80;99.90
17879;DHT22;9065;51.050;13.758;2022-08-16T08:28:52;29.60;99.90
17879;DHT22;9065;51.050;13.758;2022-08-16T08:31:22;29.60;99.90
17879;DHT22;9065;51.050;13.758;2022-08-16T08:33:50;29.70;99.90
17879;DHT22;9065;51.050;13.758;2022-08-16T08:36:28;29.70;99.90
17879;DHT22;9065;51.050;13.758;2022-08-16T08:38:55;29.60;99.90
17879;DHT22;9065;51.050;13.758;2022-08-16T08:41:24;29.40;99.90
17879;DHT22;9065;51.050;13.758;2022-08-16T08:43:56;29.60;99.90
17879;DHT22;9065;51.050;13.758;2022-08-16T08:46:24;29.50;99.90
17879;DHT22;9065;51.050;13.758;2022-08-16T08:48:54;29.50;99.90
17879;DHT22;9065;51.050;13.758;2022-08-16T08:51:21;29.50;99.90
17879;DHT22;9065;51.050;13.758;2022-08-16T08:53:51;29.60;99.90
17879;DHT22;9065;51.050;13.758;2022-08-16T08:56:20;29.70;99.90
17879;DHT22;9065;51.050;13.758;2022-08-16T08:58:48;29.90;99.90
17879;DHT22;9065;51.050;13.758;2022-08-16T09:01:19;29.90;99.90
17879;DHT22;9065;51.050;13.758;2022-08-16T09:03:47;29.80;99.90
17879;DHT22;9065;51.050;13.758;2022-08-16T09:06:16;29.80;99.90
17879;DHT22;9065;51.050;13.758;2022-08-16T09:08:45;29.70;99.90
17879;DHT22;9065;51.050;13.758;2022-08-16T09:11:14;29.70;99.90
17879;DHT22;9065;51.050;13.758;2022-08-16T09:13:48;29.80;99.90
17879;DHT22;9065;51.050;13.758;2022-08-16T09:16:16;29.80;99.90
17879;DHT22;9065;51.050;13.758;2022-08-16T09:18:45;29.80;99.90
17879;DHT22;9065;51.050;13.758;2022-08-16T09:21:13;29.90;99.90
17879;DHT22;9065;51.050;13.758;2022-08-16T09:23:41;29.80;99.90
17879;DHT22;9065;51.050;13.758;2022-08-16T09:26:10;29.90;99.90
17879;DHT22;9065;51.050;13.758;2022-08-16T09:28:40;29.90;99.90
17879;DHT22;9065;51.050;13.758;2022-08-16T09:31:09;30.10;99.90
17879;DHT22;9065;51.050;13.758;2022-08-16T09:33:37;30.10;99.90
17879;DHT22;9065;51.050;13.758;2022-08-16T09:36:05;30.30;99.90
17879;DHT22;9065;51.050;13.758;2022-08-16T09:38:33;30.30;99.90
17879;DHT22;9065;51.050;13.758;2022-08-16T09:41:04;30.50;99.90
17879;DHT22;9065;51.050;13.758;2022-08-16T09:43:33;30.40;99.90
17879;DHT22;9065;51.050;13.758;2022-08-16T09:46:05;30.30;99.90
17879;DHT22;9065;51.050;13.758;2022-08-16T09:48:35;30.30;99.90
17879;DHT22;9065;51.050;13.758;2022-08-16T09:51:08;30.60;99.90
17879;DHT22;9065;51.050;13.758;2022-08-16T09:53:35;30.80;99.90
17879;DHT22;9065;51.050;13.758;2022-08-16T09:56:14;30.80;99.90
17879;DHT22;9065;51.050;13.758;2022-08-16T09:58:42;30.70;99.90
17879;DHT22;9065;51.050;13.758;2022-08-16T10:01:10;30.80;99.90
17879;DHT22;9065;51.050;13.758;2022-08-16T10:03:38;30.90;99.90
17879;DHT22;9065;51.050;13.758;2022-08-16T10:06:05;31.20;99.90
17879;DHT22;9065;51.050;13.758;2022-08-16T10:08:32;31.80;99.90
17879;DHT22;9065;51.050;13.758;2022-08-16T10:11:00;32.40;99.90
17879;DHT22;9065;51.050;13.758;2022-08-16T10:13:47;33.80;99.90
17879;DHT22;9065;51.050;13.758;2022-08-16T10:16:15;35.90;99.90
17879;DHT22;9065;51.050;13.758;2022-08-16T10:18:43;35.20;99.90
17879;DHT22;9065;51.050;13.758;2022-08-16T10:21:10;34.80;99.90
17879;DHT22;9065;51.050;13.758;2022-08-16T10:23:41;35.40;99.90
17879;DHT22;9065;51.050;13.758;2022-08-16T10:26:08;33.90;99.90
17879;DHT22;9065;51.050;13.758;2022-08-16T10:28:36;32.50;99.90
17879;DHT22;9065;51.050;13.758;2022-08-16T10:31:06;31.60;99.90
17879;DHT22;9065;51.050;13.758;2022-08-16T10:33:35;31.40;99.90
17879;DHT22;9065;51.050;13.758;2022-08-16T10:36:04;31.70;99.90
17879;DHT22;9065;51.050;13.758;2022-08-16T10:38:33;31.70;99.90
17879;DHT22;9065;51.050;13.758;2022-08-16T10:41:02;32.40;99.90
17879;DHT22;9065;51.050;13.758;2022-08-16T10:43:30;32.70;99.90
17879;DHT22;9065;51.050;13.758;2022-08-16T10:45:57;32.30;99.90
17879;DHT22;9065;51.050;13.758;2022-08-16T10:48:27;31.80;99.90
17879;DHT22;9065;51.050;13.758;2022-08-16T10:50:56;31.50;99.90
17879;DHT22;9065;51.050;13.758;2022-08-16T10:53:23;31.10;99.90
17879;DHT22;9065;51.050;13.758;2022-08-16T10:55:51;31.50;99.90
17879;DHT22;9065;51.050;13.758;2022-08-16T10:58:18;32.20;99.90
17879;DHT22;9065;51.050;13.758;2022-08-16T11:00:45;32.60;99.90
17879;DHT22;9065;51.050;13.758;2022-08-16T11:03:13;33.30;99.90
17879;DHT22;9065;51.050;13.758;2022-08-16T11:05:41;33.30;99.90
17879;DHT22;9065;51.050;13.758;2022-08-16T11:08:09;32.80;99.90
17879;DHT22;9065;51.050;13.758;2022-08-16T11:10:39;32.20;99.90
17879;DHT22;9065;51.050;13.758;2022-08-16T11:13:07;31.70;99.90
17879;DHT22;9065;51.050;13.758;2022-08-16T11:15:35;31.10;99.90
17879;DHT22;9065;51.050;13.758;2022-08-16T11:18:02;31.30;99.90
17879;DHT22;9065;51.050;13.758;2022-08-16T11:20:34;31.40;99.90
17879;DHT22;9065;51.050;13.758;2022-08-16T11:23:02;31.40;99.90
17879;DHT22;9065;51.050;13.758;2022-08-16T11:25:33;31.50;99.90
17879;DHT22;9065;51.050;13.758;2022-08-16T11:28:02;31.40;99.90
17879;DHT22;9065;51.050;13.758;2022-08-16T11:30:31;31.70;99.90
17879;DHT22;9065;51.050;13.758;2022-08-16T11:32:59;31.90;99.90
17879;DHT22;9065;51.050;13.758;2022-08-16T11:35:30;32.20;99.90
17879;DHT22;9065;51.050;13.758;2022-08-16T11:38:05;32.10;99.90
17879;DHT22;9065;51.050;13.758;2022-08-16T11:40:36;31.80;99.90
17879;DHT22;9065;51.050;13.758;2022-08-16T11:43:03;31.70;99.90
17879;DHT22;9065;51.050;13.758;2022-08-16T11:45:32;31.70;99.90
17879;DHT22;9065;51.050;13.758;2022-08-16T11:48:00;31.50;99.90
17879;DHT22;9065;51.050;13.758;2022-08-16T11:50:34;31.30;99.90
17879;DHT22;9065;51.050;13.758;2022-08-16T11:53:04;31.30;99.90
17879;DHT22;9065;51.050;13.758;2022-08-16T11:55:31;31.30;99.90
17879;DHT22;9065;51.050;13.758;2022-08-16T11:58:00;31.20;99.90
17879;DHT22;9065;51.050;13.758;2022-08-16T12:00:28;31.00;99.90
17879;DHT22;9065;51.050;13.758;2022-08-16T12:02:55;31.10;99.90
17879;DHT22;9065;51.050;13.758;2022-08-16T12:05:23;31.10;99.90
17879;DHT22;9065;51.050;13.758;2022-08-16T12:07:50;31.00;99.90
17879;DHT22;9065;51.050;13.758;2022-08-16T12:10:24;30.90;99.90
17879;DHT22;9065;51.050;13.758;2022-08-16T12:13:00;30.80;99.90
17879;DHT22;9065;51.050;13.758;2022-08-16T12:15:28;30.80;99.90
17879;DHT22;9065;51.050;13.758;2022-08-16T12:17:56;30.90;99.90
17879;DHT22;9065;51.050;13.758;2022-08-16T12:20:28;31.00;99.90
17879;DHT22;9065;51.050;13.758;2022-08-16T12:23:02;31.20;99.90
17879;DHT22;9065;51.050;13.758;2022-08-16T12:25:32;31.30;99.90
17879;DHT22;9065;51.050;13.758;2022-08-16T12:28:02;31.20;99.90
17879;DHT22;9065;51.050;13.758;2022-08-16T12:30:33;31.10;99.90
17879;DHT22;9065;51.050;13.758;2022-08-16T12:33:02;31.00;99.90
17879;DHT22;9065;51.050;13.758;2022-08-16T12:35:31;31.00;99.90
17879;DHT22;9065;51.050;13.758;2022-08-16T12:37:59;30.50;99.90
17879;DHT22;9065;51.050;13.758;2022-08-16T12:40:30;30.30;99.90
17879;DHT22;9065;51.050;13.758;2022-08-16T12:43:00;30.10;99.90
17879;DHT22;9065;51.050;13.758;2022-08-16T12:45:31;30.00;99.90
17879;DHT22;9065;51.050;13.758;2022-08-16T12:47:59;29.80;99.90
17879;DHT22;9065;51.050;13.758;2022-08-16T12:50:43;29.80;99.90
17879;DHT22;9065;51.050;13.758;2022-08-16T12:53:10;29.80;99.90
17879;DHT22;9065;51.050;13.758;2022-08-16T12:55:37;29.90;99.90
17879;DHT22;9065;51.050;13.758;2022-08-16T12:58:08;29.80;99.90
17879;DHT22;9065;51.050;13.758;2022-08-16T13:00:35;29.80;99.90
17879;DHT22;9065;51.050;13.758;2022-08-16T13:03:03;29.90;99.90
17879;DHT22;9065;51.050;13.758;2022-08-16T13:05:31;30.00;99.90
17879;DHT22;9065;51.050;13.758;2022-08-16T13:08:05;30.10;99.90
17879;DHT22;9065;51.050;13.758;2022-08-16T13:10:32;30.10;99.90
17879;DHT22;9065;51.050;13.758;2022-08-16T13:12:59;30.00;99.90
17879;DHT22;9065;51.050;13.758;2022-08-16T13:15:28;29.90;99.90
17879;DHT22;9065;51.050;13.758;2022-08-16T13:17:55;29.90;99.90
17879;DHT22;9065;51.050;13.758;2022-08-16T13:20:25;29.90;99.90
17879;DHT22;9065;51.050;13.758;2022-08-16T13:22:58;29.90;99.90
17879;DHT22;9065;51.050;13.758;2022-08-16T13:25:32;29.80;99.90
17879;DHT22;9065;51.050;13.758;2022-08-16T13:27:59;29.70;99.90
17879;DHT22;9065;51.050;13.758;2022-08-16T13:30:40;29.60;99.90
17879;DHT22;9065;51.050;13.758;2022-08-16T13:33:13;29.70;99.90
17879;DHT22;9065;51.050;13.758;2022-08-16T13:35:43;29.80;99.90
17879;DHT22;9065;51.050;13.758;2022-08-16T13:38:11;29.90;99.90
17879;DHT22;9065;51.050;13.758;2022-08-16T13:40:40;29.90;99.90
17879;DHT22;9065;51.050;13.758;2022-08-16T13:43:07;29.90;99.90
17879;DHT22;9065;51.050;13.758;2022-08-16T13:45:36;29.90;99.90
17879;DHT22;9065;51.050;13.758;2022-08-16T13:48:05;29.80;99.90
17879;DHT22;9065;51.050;13.758;2022-08-16T13:50:33;29.90;99.90
17879;DHT22;9065;51.050;13.758;2022-08-16T13:53:00;29.90;99.90
17879;DHT22;9065;51.050;13.758;2022-08-16T13:55:28;29.90;99.90
17879;DHT22;9065;51.050;13.758;2022-08-16T13:57:55;29.90;99.90
17879;DHT22;9065;51.050;13.758;2022-08-16T14:00:29;30.00;99.90
17879;DHT22;9065;51.050;13.758;2022-08-16T14:02:59;30.10;99.90
17879;DHT22;9065;51.050;13.758;2022-08-16T14:05:26;30.30;99.90
17879;DHT22;9065;51.050;13.758;2022-08-16T14:07:52;30.40;99.90
17879;DHT22;9065;51.050;13.758;2022-08-16T14:10:20;30.40;99.90
17879;DHT22;9065;51.050;13.758;2022-08-16T14:12:48;30.40;99.90
17879;DHT22;9065;51.050;13.758;2022-08-16T14:15:17;30.30;99.90
17879;DHT22;9065;51.050;13.758;2022-08-16T14:17:45;30.30;99.90
17879;DHT22;9065;51.050;13.758;2022-08-16T14:20:14;30.30;99.90
17879;DHT22;9065;51.050;13.758;2022-08-16T14:22:43;30.20;99.90
17879;DHT22;9065;51.050;13.758;2022-08-16T14:25:12;30.10;99.90
17879;DHT22;9065;51.050;13.758;2022-08-16T14:27:39;30.10;99.90
17879;DHT22;9065;51.050;13.758;2022-08-16T14:30:07;30.10;99.90
17879;DHT22;9065;51.050;13.758;2022-08-16T14:32:37;30.20;99.90
17879;DHT22;9065;51.050;13.758;2022-08-16T14:35:07;30.20;99.90
17879;DHT22;9065;51.050;13.758;2022-08-16T14:37:37;30.30;99.90
17879;DHT22;9065;51.050;13.758;2022-08-16T14:40:07;30.30;99.90
17879;DHT22;9065;51.050;13.758;2022-08-16T14:42:35;30.40;99.90
17879;DHT22;9065;51.050;13.758;2022-08-16T14:45:04;30.30;99.90
17879;DHT22;9065;51.050;13.758;2022-08-16T14:47:32;30.40;99.90
17879;DHT22;9065;51.050;13.758;2022-08-16T14:50:01;30.30;99.90
17879;DHT22;9065;51.050;13.758;2022-08-16T14:52:28;30.20;99.90
17879;DHT22;9065;51.050;13.758;2022-08-16T14:55:02;30.20;99.90
17879;DHT22;9065;51.050;13.758;2022-08-16T14:57:29;30.10;99.90
17879;DHT22;9065;51.050;13.758;2022-08-16T14:59:56;30.00;99.90
17879;DHT22;9065;51.050;13.758;2022-08-16T15:02:24;29.90;99.90
17879;DHT22;9065;51.050;13.758;2022-08-16T15:04:53;29.90;99.90
17879;DHT22;9065;51.050;13.758;2022-08-16T15:07:21;29.80;99.90
17879;DHT22;9065;51.050;13.758;2022-08-16T15:09:51;29.80;99.90
17879;DHT22;9065;51.050;13.758;2022-08-16T15:12:22;29.80;99.90
17879;DHT22;9065;51.050;13.758;2022-08-16T15:14:52;29.70;99.90
17879;DHT22;9065;51.050;13.758;2022-08-16T15:17:22;29.70;99.90
17879;DHT22;9065;51.050;13.758;2022-08-16T15:19:51;29.80;99.90
17879;DHT22;9065;51.050;13.758;2022-08-16T15:22:24;29.90;99.90
17879;DHT22;9065;51.050;13.758;2022-08-16T15:24:56;29.80;99.90
17879;DHT22;9065;51.050;13.758;2022-08-16T15:27:26;29.70;99.90
17879;DHT22;9065;51.050;13.758;2022-08-16T15:29:54;29.60;99.90
17879;DHT22;9065;51.050;13.758;2022-08-16T15:32:23;29.40;99.90
17879;DHT22;9065;51.050;13.758;2022-08-16T15:34:53;29.30;99.90
17879;DHT22;9065;51.050;13.758;2022-08-16T15:37:21;29.20;99.90
17879;DHT22;9065;51.050;13.758;2022-08-16T15:39:48;29.20;99.90
17879;DHT22;9065;51.050;13.758;2022-08-16T15:42:15;29.20;99.90